Time;durP1;ratioP1;P1;durP2;ratioP2;P2;SDS_P1;SDS_P2;PMS_P1;PMS_P2;Temp;Humidity;BMP_temperature;BMP_pressure;BME280_temperature;BME280_humidity;BME280_pressure;Samples;Min_cycle;Max_cycle;Signal;HPM_P1;HPM_P2
2023/08/16 00:02:02;;;;;;;17.85;16.45;;;;;;;18.91;100.00;95636.09;4890837;29;20020;-83
2023/08/16 00:04:28;;;;;;;17.73;16.23;;;;;;;18.86;100.00;95656.09;4888279;29;21059;-84
2023/08/16 00:06:53;;;;;;;19.08;17.40;;;;;;;18.85;100.00;95665.78;4890824;29;20020;-82
2023/08/16 00:09:20;;;;;;;17.77;16.42;;;;;;;18.94;100.00;95637.53;4889001;29;20459;-83
2023/08/16 00:11:45;;;;;;;17.92;16.25;;;;;;;18.95;100.00;95616.28;4889755;29;20548;-82
2023/08/16 00:14:11;;;;;;;16.63;15.50;;;;;;;19.03;100.00;95594.28;4888117;29;20028;-82
2023/08/16 00:16:36;;;;;;;17.60;16.27;;;;;;;19.06;100.00;95570.22;4890551;29;20036;-83
2023/08/16 00:19:02;;;;;;;18.08;16.70;;;;;;;19.06;100.00;95591.22;4889974;29;20403;-83
2023/08/16 00:21:27;;;;;;;18.98;17.35;;;;;;;19.03;100.00;95591.63;4889706;29;20035;-82
2023/08/16 00:23:52;;;;;;;17.17;15.82;;;;;;;18.99;100.00;95600.94;4890533;29;20759;-84
2023/08/16 00:26:18;;;;;;;17.27;15.88;;;;;;;19.01;100.00;95608.63;4889488;29;20478;-82
2023/08/16 00:28:45;;;;;;;17.85;16.15;;;;;;;19.04;100.00;95601.13;4889525;29;20029;-83
2023/08/16 00:31:11;;;;;;;16.77;15.38;;;;;;;18.98;100.00;95588.81;4888784;29;20112;-82
2023/08/16 00:33:36;;;;;;;17.95;16.63;;;;;;;19.00;100.00;95578.94;4887118;29;20124;-83
2023/08/16 00:36:02;;;;;;;17.55;16.15;;;;;;;19.00;100.00;95607.81;4884630;29;20495;-83
2023/08/16 00:38:27;;;;;;;18.35;16.92;;;;;;;18.90;100.00;95649.44;4885581;29;20029;-83
2023/08/16 00:40:53;;;;;;;17.83;16.50;;;;;;;18.93;100.00;95667.41;4885647;29;21067;-83
2023/08/16 00:43:18;;;;;;;17.98;16.67;;;;;;;18.86;100.00;95670.03;4886713;29;20040;-84
2023/08/16 00:45:45;;;;;;;19.20;17.52;;;;;;;18.85;100.00;95670.22;4887475;29;20416;-85
2023/08/16 00:48:11;;;;;;;18.25;16.80;;;;;;;18.82;100.00;95654.88;4885045;29;20025;-85
2023/08/16 00:50:37;;;;;;;19.25;17.70;;;;;;;18.68;100.00;95642.81;4885458;29;20040;-85
2023/08/16 00:53:02;;;;;;;17.25;15.93;;;;;;;18.72;100.00;95651.91;4883899;29;20053;-84
2023/08/16 00:55:28;;;;;;;17.83;16.30;;;;;;;18.56;100.00;95652.31;4887228;29;20513;-81
2023/08/16 00:57:55;;;;;;;23.05;21.05;;;;;;;18.19;100.00;95693.81;4885430;29;20142;-86
2023/08/16 01:00:21;;;;;;;19.30;17.90;;;;;;;18.34;100.00;95731.16;4885462;29;20065;-84
2023/08/16 01:02:46;;;;;;;19.98;18.35;;;;;;;18.33;100.00;95732.16;4885221;29;20029;-84
2023/08/16 01:05:12;;;;;;;19.10;17.65;;;;;;;18.35;100.00;95735.41;4885377;29;20032;-83
2023/08/16 01:07:37;;;;;;;19.60;18.08;;;;;;;18.31;100.00;95731.53;4886407;29;20923;-83
2023/08/16 01:10:04;;;;;;;19.83;17.75;;;;;;;18.27;100.00;95704.09;4885462;29;20032;-78
2023/08/16 01:12:41;;;;;;;18.58;17.10;;;;;;;18.25;100.00;95679.91;4887370;29;20039;-81
2023/08/16 01:15:18;;;;;;;18.08;16.30;;;;;;;18.21;100.00;95654.25;4885371;29;20024;-83
2023/08/16 01:17:44;;;;;;;19.27;17.60;;;;;;;18.21;100.00;95631.47;4885014;29;20522;-82
2023/08/16 01:20:10;;;;;;;19.13;17.30;;;;;;;18.11;100.00;95631.03;4885819;29;20017;-84
2023/08/16 01:22:53;;;;;;;18.50;16.98;;;;;;;18.03;100.00;95654.03;4883526;29;20400;-82
2023/08/16 01:25:30;;;;;;;18.40;16.77;;;;;;;17.97;100.00;95658.28;4885227;29;20031;-84
2023/08/16 01:27:56;;;;;;;17.88;16.52;;;;;;;17.94;100.00;95656.03;4885313;29;20068;-83
2023/08/16 01:30:22;;;;;;;17.67;16.08;;;;;;;17.85;100.00;95665.09;4885070;29;20467;-85
2023/08/16 01:32:47;;;;;;;18.83;17.33;;;;;;;17.84;100.00;95666.09;4884826;29;20153;-85
2023/08/16 01:35:14;;;;;;;17.35;15.90;;;;;;;17.76;100.00;95658.41;4884956;29;20119;-85
2023/08/16 01:37:41;;;;;;;18.50;17.23;;;;;;;17.68;100.00;95671.69;4884707;29;20032;-85
2023/08/16 01:40:09;;;;;;;18.17;16.27;;;;;;;17.66;100.00;95681.56;4884924;29;20080;-85
2023/08/16 01:42:39;;;;;;;17.98;16.60;;;;;;;17.56;100.00;95694.22;4885507;29;20024;-84
2023/08/16 01:45:05;;;;;;;18.90;17.38;;;;;;;17.57;100.00;95695.81;4882613;29;20039;-80
2023/08/16 01:47:31;;;;;;;20.25;18.50;;;;;;;17.49;100.00;95701.22;4884752;29;20025;-79
2023/08/16 01:49:57;;;;;;;19.92;17.90;;;;;;;17.37;100.00;95709.59;4883083;29;20025;-85
2023/08/16 01:52:25;;;;;;;19.38;17.63;;;;;;;17.35;100.00;95729.94;4884034;29;20058;-84
2023/08/16 01:54:50;;;;;;;20.27;18.58;;;;;;;17.38;100.00;95734.78;4886145;29;20021;-81
2023/08/16 01:57:16;;;;;;;18.65;16.77;;;;;;;17.37;100.00;95720.06;4884705;29;20035;-83
2023/08/16 01:59:41;;;;;;;18.05;16.52;;;;;;;17.41;100.00;95707.41;4886113;29;20031;-84
2023/08/16 02:02:06;;;;;;;19.55;18.00;;;;;;;17.37;100.00;95691.28;4884344;29;20034;-84
2023/08/16 02:04:32;;;;;;;22.73;21.02;;;;;;;17.04;100.00;95702.56;4885754;29;20032;-85
2023/08/16 02:06:57;;;;;;;23.13;21.15;;;;;;;17.06;100.00;95756.34;4884383;29;20031;-85
2023/08/16 02:09:22;;;;;;;20.45;18.55;;;;;;;17.16;100.00;95767.28;4884843;29;21020;-83
2023/08/16 02:11:48;;;;;;;20.90;19.05;;;;;;;17.20;100.00;95741.53;4884093;29;20021;-83
2023/08/16 02:14:13;;;;;;;17.92;16.52;;;;;;;17.06;100.00;95751.09;4885143;29;20036;-82
2023/08/16 02:16:39;;;;;;;21.33;19.40;;;;;;;17.04;100.00;95744.44;4885582;29;20029;-86
2023/08/16 02:19:04;;;;;;;19.20;17.30;;;;;;;16.98;100.00;95740.78;4883653;29;20040;-83
2023/08/16 02:21:29;;;;;;;20.23;18.45;;;;;;;16.90;100.00;95751.38;4885506;29;20036;-83
2023/08/16 02:23:55;;;;;;;19.83;18.27;;;;;;;16.80;100.00;95763.97;4884401;29;20036;-84
2023/08/16 02:26:22;;;;;;;19.40;17.90;;;;;;;16.80;100.00;95777.06;4885722;29;20036;-81
2023/08/16 02:28:49;;;;;;;20.50;18.65;;;;;;;16.75;100.00;95785.50;4884324;29;20535;-84
2023/08/16 02:31:14;;;;;;;20.08;18.08;;;;;;;16.80;100.00;95798.81;4868222;29;20042;-85
2023/08/16 02:33:40;;;;;;;19.92;18.23;;;;;;;16.77;100.00;95790.53;4885412;29;20036;-83
2023/08/16 02:36:05;;;;;;;20.05;18.40;;;;;;;16.71;100.00;95786.88;4884117;29;20052;-84
2023/08/16 02:38:32;;;;;;;19.13;17.63;;;;;;;16.59;100.00;95792.78;4884640;29;20025;-82
2023/08/16 02:40:57;;;;;;;21.63;19.77;;;;;;;16.57;100.00;95800.00;4881934;29;20097;-81
2023/08/16 02:43:23;;;;;;;22.17;20.02;;;;;;;16.47;100.00;95800.25;4885648;29;20036;-83
2023/08/16 02:45:48;;;;;;;20.67;19.00;;;;;;;16.43;100.00;95811.31;4883784;29;20084;-85
2023/08/16 02:48:14;;;;;;;19.65;17.95;;;;;;;16.43;100.00;95825.19;4885153;29;20024;-83
2023/08/16 02:50:39;;;;;;;19.20;17.60;;;;;;;16.49;100.00;95832.28;4883246;29;20036;-83
2023/08/16 02:53:04;;;;;;;20.05;18.55;;;;;;;16.47;100.00;95813.34;4884262;29;20044;-84
2023/08/16 02:55:30;;;;;;;25.05;22.92;;;;;;;16.27;100.00;95839.28;4884926;29;20400;-84
2023/08/16 02:57:55;;;;;;;21.63;19.50;;;;;;;16.27;100.00;95846.31;4882080;29;20031;-84
2023/08/16 03:00:21;;;;;;;20.38;18.70;;;;;;;16.33;100.00;95849.03;4868269;29;20033;-83
2023/08/16 03:02:46;;;;;;;21.20;19.50;;;;;;;16.41;100.00;95829.00;4875409;29;20484;-83
2023/08/16 03:05:12;;;;;;;23.23;21.45;;;;;;;16.37;100.00;95801.59;4879825;29;20479;-84
2023/08/16 03:07:39;;;;;;;21.75;19.80;;;;;;;16.32;100.00;95789.88;4884297;29;20135;-84
2023/08/16 03:10:05;;;;;;;21.42;19.50;;;;;;;16.32;100.00;95805.56;4883008;29;20043;-83
2023/08/16 03:12:30;;;;;;;19.35;17.73;;;;;;;16.30;100.00;95822.44;4884946;29;20120;-85
2023/08/16 03:14:56;;;;;;;21.42;19.70;;;;;;;16.26;100.00;95826.41;4883649;29;20451;-85
2023/08/16 03:17:21;;;;;;;20.27;18.65;;;;;;;16.18;100.00;95824.69;4885217;29;20029;-85
2023/08/16 03:19:47;;;;;;;21.80;19.98;;;;;;;16.16;100.00;95826.69;4883445;29;20024;-83
2023/08/16 03:22:12;;;;;;;19.58;17.98;;;;;;;16.13;100.00;95839.31;4884047;29;20043;-84
2023/08/16 03:24:38;;;;;;;22.23;20.20;;;;;;;16.07;100.00;95833.00;4883376;29;20487;-82
2023/08/16 03:27:03;;;;;;;22.10;20.23;;;;;;;16.05;100.00;95850.69;4884589;29;20028;-84
2023/08/16 03:29:28;;;;;;;20.85;19.45;;;;;;;16.12;100.00;95875.09;4882074;29;20136;-84
2023/08/16 03:31:54;;;;;;;22.52;20.63;;;;;;;16.13;100.00;95881.94;4883294;29;20033;-87
2023/08/16 03:34:19;;;;;;;22.20;20.17;;;;;;;16.19;100.00;95886.44;4874251;29;20045;-84
2023/08/16 03:36:44;;;;;;;23.60;21.40;;;;;;;16.24;100.00;95878.06;4864651;29;20109;-82
2023/08/16 03:39:11;;;;;;;33.22;24.25;;;;;;;16.31;100.00;95879.75;4865321;29;20056;-80
2023/08/16 03:41:37;;;;;;;21.80;20.00;;;;;;;16.32;100.00;95884.00;4883286;29;20064;-81
2023/08/16 03:44:04;;;;;;;21.63;19.60;;;;;;;16.29;100.00;95883.53;4884228;29;20033;-82
2023/08/16 03:46:29;;;;;;;21.27;19.15;;;;;;;16.30;100.00;95886.00;4873499;29;20060;-83
2023/08/16 03:48:55;;;;;;;24.60;20.90;;;;;;;16.29;100.00;95880.94;4884291;29;20476;-83
2023/08/16 03:51:20;;;;;;;21.67;19.63;;;;;;;16.30;100.00;95879.94;4883990;29;20036;-83
2023/08/16 03:53:46;;;;;;;23.98;22.05;;;;;;;16.35;100.00;95870.56;4883827;29;20541;-84
2023/08/16 03:56:11;;;;;;;19.95;17.90;;;;;;;16.38;100.00;95861.53;4884160;29;20024;-84
2023/08/16 03:58:36;;;;;;;20.65;18.95;;;;;;;16.42;100.00;95852.31;4871616;29;20116;-80
2023/08/16 04:01:02;;;;;;;22.73;20.42;;;;;;;16.58;100.00;95841.66;4881567;29;20025;-83
2023/08/16 04:03:27;;;;;;;21.48;19.67;;;;;;;16.79;100.00;95807.66;4881794;29;20029;-83
2023/08/16 04:05:53;;;;;;;19.88;17.88;;;;;;;16.94;100.00;95741.34;4883032;29;20028;-84
2023/08/16 04:08:18;;;;;;;21.63;19.85;;;;;;;16.92;100.00;95702.28;4883931;29;20040;-83
2023/08/16 04:10:44;;;;;;;23.13;20.73;;;;;;;16.92;100.00;95678.72;4887525;29;20067;-84
2023/08/16 04:13:09;;;;;;;19.35;17.65;;;;;;;16.99;100.00;95676.16;4887401;29;20029;-81
2023/08/16 04:15:36;;;;;;;20.30;18.35;;;;;;;17.07;100.00;95653.25;4885835;29;20103;-82
2023/08/16 04:18:01;;;;;;;19.98;18.42;;;;;;;17.21;100.00;95633.97;4888148;29;20047;-82
2023/08/16 04:20:27;;;;;;;19.52;17.88;;;;;;;17.33;100.00;95613.31;4884562;29;20032;-84
2023/08/16 04:22:52;;;;;;;21.80;20.02;;;;;;;17.43;100.00;95584.13;4888159;29;20024;-82
2023/08/16 04:25:18;;;;;;;20.65;18.65;;;;;;;17.60;100.00;95553.97;4886283;29;20032;-81
2023/08/16 04:27:43;;;;;;;19.65;17.75;;;;;;;17.77;100.00;95505.41;4886896;29;20489;-83
2023/08/16 04:30:10;;;;;;;18.85;17.27;;;;;;;18.05;100.00;95453.56;4884962;29;20051;-81
2023/08/16 04:32:35;;;;;;;17.75;16.02;;;;;;;18.31;100.00;95390.56;4869542;29;20032;-78
2023/08/16 04:35:02;;;;;;;16.30;14.57;;;;;;;18.69;100.00;95343.41;4885919;29;20028;-86
2023/08/16 04:37:27;;;;;;;15.13;13.65;;;;;;;19.41;100.00;95235.19;4886866;29;20589;-86
2023/08/16 04:39:53;;;;;;;12.27;11.20;;;;;;;20.10;100.00;95149.78;4870823;29;20051;-88
2023/08/16 04:42:19;;;;;;;11.50;10.43;;;;;;;21.41;100.00;95015.03;4886492;29;20132;-85
2023/08/16 04:44:44;;;;;;;11.35;9.52;;;;;;;22.58;100.00;94937.47;4887871;29;20036;-86
2023/08/16 04:47:10;;;;;;;10.07;8.93;;;;;;;23.36;100.00;94912.44;4874641;29;20041;-87
2023/08/16 04:49:35;;;;;;;9.00;8.20;;;;;;;24.17;100.00;94886.66;4888595;29;20033;-87
2023/08/16 04:52:00;;;;;;;8.75;7.80;;;;;;;24.56;100.00;94877.28;4888120;29;20061;-87
2023/08/16 04:54:26;;;;;;;8.52;7.68;;;;;;;25.03;100.00;94866.59;4885287;29;20112;-85
2023/08/16 04:56:52;;;;;;;8.18;7.30;;;;;;;25.86;100.00;94863.72;4886689;29;20491;-86
2023/08/16 04:59:18;;;;;;;9.02;8.35;;;;;;;26.16;100.00;94856.53;4886240;29;20099;-87
2023/08/16 05:01:43;;;;;;;8.95;8.30;;;;;;;26.06;100.00;94855.72;4888417;29;20032;-86
2023/08/16 05:04:09;;;;;;;8.85;8.23;;;;;;;26.82;100.00;94852.81;4887920;29;20028;-88
2023/08/16 05:06:35;;;;;;;7.57;6.97;;;;;;;27.17;100.00;94860.56;4888501;29;20043;-87
2023/08/16 05:09:01;;;;;;;7.47;6.88;;;;;;;26.77;100.00;94866.13;4899838;29;20084;-88
2023/08/16 05:11:26;;;;;;;7.85;7.35;;;;;;;27.20;100.00;94873.31;4886074;29;20119;-87
2023/08/16 05:13:52;;;;;;;10.02;9.13;;;;;;;27.33;100.00;94871.91;4887264;29;20064;-88
2023/08/16 05:16:17;;;;;;;9.10;8.20;;;;;;;27.29;100.00;94874.34;4886189;29;20096;-86
2023/08/16 05:18:43;;;;;;;18.58;9.10;;;;;;;25.32;100.00;94866.88;4887962;29;20488;-86
2023/08/16 05:21:08;;;;;;;12.75;11.50;;;;;;;24.50;100.00;94870.38;4884035;29;20050;-88
2023/08/16 05:23:34;;;;;;;11.70;10.77;;;;;;;24.27;100.00;94875.31;4863749;29;20029;-86
2023/08/16 05:26:00;;;;;;;13.00;11.88;;;;;;;24.01;100.00;94879.63;4882062;29;20052;-82
2023/08/16 05:28:25;;;;;;;14.55;13.15;;;;;;;23.91;100.00;94900.75;4886745;29;20041;-83
2023/08/16 05:30:51;;;;;;;14.73;13.43;;;;;;;23.58;100.00;94889.38;4868784;29;20032;-85
2023/08/16 05:33:16;;;;;;;18.60;14.85;;;;;;;23.28;100.00;94893.59;4884223;29;20124;-83
2023/08/16 05:35:41;;;;;;;17.15;15.40;;;;;;;23.10;100.00;94900.03;4885033;29;20028;-80
2023/08/16 05:49:05;;;;;;;17.15;15.65;;;;;;;24.69;100.00;94885.81;5087479;27;20416;-79
2023/08/16 05:51:31;;;;;;;17.40;15.90;;;;;;;23.83;100.00;94893.25;5093274;28;20550;-81
2023/08/16 05:53:56;;;;;;;15.85;14.63;;;;;;;24.53;100.00;94898.97;5074690;28;20028;-86
2023/08/16 05:56:22;;;;;;;16.77;15.27;;;;;;;24.59;100.00;94889.22;5061056;28;20027;-85
2023/08/16 05:58:47;;;;;;;17.20;15.68;;;;;;;25.44;100.00;94887.84;5075873;28;20055;-84
2023/08/16 06:01:13;;;;;;;13.80;12.52;;;;;;;29.59;98.01;94879.31;5077841;28;20020;-81
2023/08/16 06:03:38;;;;;;;11.57;10.68;;;;;;;30.80;86.35;94887.03;5077018;28;20030;-85
2023/08/16 06:06:03;;;;;;;13.27;12.13;;;;;;;27.49;100.00;94882.19;5060694;28;20467;-85
2023/08/16 06:08:29;;;;;;;13.05;12.00;;;;;;;26.14;100.00;94884.38;5043833;28;20040;-80
2023/08/16 06:10:54;;;;;;;14.30;13.07;;;;;;;25.51;100.00;94878.59;5056334;28;20028;-84
2023/08/16 06:13:19;;;;;;;15.63;14.25;;;;;;;25.17;100.00;94886.22;5076479;28;20043;-82
2023/08/16 06:15:45;;;;;;;16.67;15.10;;;;;;;24.77;100.00;94883.44;5075108;28;20553;-80
2023/08/16 06:18:10;;;;;;;15.35;14.25;;;;;;;24.64;100.00;94887.38;5059105;28;20032;-84
2023/08/16 06:20:36;;;;;;;15.77;14.48;;;;;;;24.67;100.00;94872.81;5073961;28;20028;-82
2023/08/16 06:23:01;;;;;;;15.45;13.95;;;;;;;24.55;100.00;94877.56;5073141;28;20523;-81
2023/08/16 06:25:27;;;;;;;15.15;13.77;;;;;;;24.72;100.00;94874.69;5054691;28;20036;-81
2023/08/16 06:27:52;;;;;;;15.10;13.82;;;;;;;24.95;100.00;94877.69;5051730;28;20028;-86
2023/08/16 06:30:18;;;;;;;15.65;13.38;;;;;;;25.05;100.00;94880.38;5074867;28;20063;-84
2023/08/16 06:32:43;;;;;;;14.73;13.32;;;;;;;24.96;100.00;94873.19;5075963;28;20135;-84
2023/08/16 06:35:09;;;;;;;14.98;13.75;;;;;;;25.39;100.00;94882.53;5076588;28;20024;-78
2023/08/16 06:37:37;;;;;;;14.02;12.77;;;;;;;25.64;100.00;94871.97;5057932;28;20454;-80
2023/08/16 06:40:05;;;;;;;12.65;11.55;;;;;;;26.86;100.00;94875.94;5047650;28;20032;-81
2023/08/16 06:42:32;;;;;;;14.95;13.68;;;;;;;26.96;100.00;94870.56;5050174;28;20037;-79
2023/08/16 06:44:57;;;;;;;14.13;12.93;;;;;;;27.87;100.00;94875.22;5053802;28;20035;-82
2023/08/16 06:47:22;;;;;;;13.13;12.05;;;;;;;28.77;97.87;94873.50;5034790;28;20044;-78
2023/08/16 06:49:49;;;;;;;12.50;11.18;;;;;;;28.06;99.45;94862.81;5039597;28;20059;-78
2023/08/16 06:52:14;;;;;;;12.18;11.20;;;;;;;28.64;95.33;94868.81;5040586;28;20848;-85
2023/08/16 06:54:42;;;;;;;10.40;9.35;;;;;;;28.77;98.34;94868.16;5040672;28;20037;-79
2023/08/16 06:57:08;;;;;;;;;;;;;;;29.00;91.94;94863.06;5040342;28;20069;-82
2023/08/16 06:59:33;;;;;;;9.90;9.03;;;;;;;29.29;94.44;94861.88;5039254;28;19959;-84
2023/08/16 07:01:59;;;;;;;13.40;7.90;;;;;;;33.22;72.61;94864.13;5040581;28;20025;-81
2023/08/16 07:04:25;;;;;;;9.07;8.20;;;;;;;34.56;61.41;94861.06;5011954;28;20126;-80
2023/08/16 07:06:50;;;;;;;12.10;8.03;;;;;;;34.27;59.30;94859.13;5038960;28;20805;-79
2023/08/16 07:09:15;;;;;;;9.13;6.47;;;;;;;34.54;57.66;94855.22;5029890;28;20021;-83
2023/08/16 07:11:41;;;;;;;7.17;6.50;;;;;;;35.62;55.76;94859.78;5040618;28;20540;-85
2023/08/16 07:14:06;;;;;;;6.93;6.23;;;;;;;35.91;54.97;94859.69;5018834;28;20028;-83
2023/08/16 07:16:33;;;;;;;7.20;6.60;;;;;;;35.46;53.67;94859.59;5022676;28;20040;-87
2023/08/16 07:18:58;;;;;;;7.80;7.10;;;;;;;35.21;55.62;94852.50;5033249;28;20034;-85
2023/08/16 07:21:26;;;;;;;7.43;6.82;;;;;;;35.38;55.27;94846.97;5015725;28;20404;-85
2023/08/16 07:23:51;;;;;;;9.40;7.82;;;;;;;32.27;66.48;94853.09;5046146;28;20033;-84
2023/08/16 07:26:16;;;;;;;8.43;7.50;;;;;;;30.82;76.97;94853.53;5036833;28;20036;-78
2023/08/16 07:28:42;;;;;;;8.30;7.55;;;;;;;30.59;79.50;94848.44;5040389;28;20567;-87
2023/08/16 07:31:08;;;;;;;8.63;7.75;;;;;;;30.40;78.11;94856.56;5041268;28;20040;-84
2023/08/16 07:33:35;;;;;;;8.60;7.90;;;;;;;29.77;78.16;94849.09;5037148;28;20139;-83
2023/08/16 07:36:04;;;;;;;9.07;8.38;;;;;;;30.17;78.11;94849.47;5035468;28;20501;-82
2023/08/16 07:38:30;;;;;;;11.65;9.07;;;;;;;30.07;78.41;94839.78;5054060;28;20162;-85
2023/08/16 07:40:56;;;;;;;10.30;9.23;;;;;;;30.08;80.26;94848.59;5043827;28;20021;-85
2023/08/16 07:43:21;;;;;;;9.65;8.85;;;;;;;30.37;81.72;94846.44;5051621;28;20028;-83
2023/08/16 07:45:51;;;;;;;9.95;8.80;;;;;;;30.34;79.95;94842.44;5055536;28;20465;-87
2023/08/16 07:48:18;;;;;;;10.15;8.93;;;;;;;29.59;84.86;94838.44;5040337;28;20049;-84
2023/08/16 07:50:45;;;;;;;13.50;8.15;;;;;;;30.22;85.49;94841.34;5048073;28;20545;-85
2023/08/16 07:53:11;;;;;;;9.80;8.90;;;;;;;30.11;79.38;94835.44;5060607;28;20035;-81
2023/08/16 07:55:36;;;;;;;10.07;8.88;;;;;;;29.29;82.63;94832.50;5041558;28;20568;-84
2023/08/16 07:58:02;;;;;;;9.48;8.73;;;;;;;30.03;82.54;94830.75;5059089;28;20123;-84
2023/08/16 08:00:29;;;;;;;8.77;8.07;;;;;;;30.48;82.84;94831.78;5056613;28;20303;-84
2023/08/16 08:02:54;;;;;;;9.63;8.82;;;;;;;29.88;82.57;94827.56;5059060;28;20054;-85
2023/08/16 08:05:21;;;;;;;10.25;9.45;;;;;;;29.60;84.59;94837.38;5058325;28;20025;-86
2023/08/16 08:07:47;;;;;;;11.05;8.70;;;;;;;29.68;84.08;94836.69;5058482;28;20377;-83
2023/08/16 08:10:14;;;;;;;10.82;9.45;;;;;;;29.78;83.96;94840.00;5042601;28;20505;-85
2023/08/16 08:12:39;;;;;;;8.93;7.90;;;;;;;29.33;85.11;94835.41;5041385;28;20445;-84
2023/08/16 08:15:05;;;;;;;10.15;9.15;;;;;;;29.15;89.36;94838.84;5062360;28;20512;-84
2023/08/16 08:17:30;;;;;;;9.07;8.30;;;;;;;28.93;87.80;94841.31;5036496;28;20106;-84
2023/08/16 08:19:56;;;;;;;11.68;9.45;;;;;;;29.03;87.47;94836.59;5039082;28;20100;-82
2023/08/16 08:22:22;;;;;;;10.23;9.52;;;;;;;29.10;91.09;94833.56;5018829;28;20650;-85
2023/08/16 08:24:47;;;;;;;10.52;9.63;;;;;;;29.09;98.72;94838.09;5038821;28;20060;-81
2023/08/16 08:27:12;;;;;;;11.25;10.27;;;;;;;28.98;91.02;94833.22;5042930;28;20032;-83
2023/08/16 08:29:39;;;;;;;15.52;9.63;;;;;;;29.11;93.74;94838.63;5028825;28;20063;-81
2023/08/16 08:32:05;;;;;;;12.05;9.68;;;;;;;29.21;89.13;94835.81;5024464;28;20107;-82
2023/08/16 08:34:31;;;;;;;10.80;9.80;;;;;;;29.60;88.48;94838.16;5038506;28;20409;-78
2023/08/16 08:36:57;;;;;;;9.65;8.75;;;;;;;29.64;85.08;94833.00;5036013;28;20054;-79
2023/08/16 08:39:23;;;;;;;10.63;9.55;;;;;;;28.31;89.90;94832.47;5013930;28;20064;-82
2023/08/16 08:41:48;;;;;;;11.68;9.07;;;;;;;28.55;94.39;94833.22;5029964;28;20048;-82
2023/08/16 08:44:22;;;;;;;11.77;9.05;;;;;;;28.81;89.73;94830.25;5035053;28;20482;-81
2023/08/16 08:46:48;;;;;;;11.27;8.85;;;;;;;28.91;92.00;94828.25;5033532;28;20427;-81
2023/08/16 08:49:15;;;;;;;10.00;9.10;;;;;;;28.92;92.57;94834.38;5034840;28;20747;-81
2023/08/16 08:51:41;;;;;;;9.88;8.90;;;;;;;27.73;93.35;94829.84;5039536;28;20118;-81
2023/08/16 08:54:06;;;;;;;10.20;9.30;;;;;;;28.20;95.61;94829.09;5044797;28;20490;-82
2023/08/16 08:56:32;;;;;;;10.18;9.35;;;;;;;28.38;96.90;94824.91;5037030;28;20032;-78
2023/08/16 08:59:01;;;;;;;9.88;8.73;;;;;;;28.55;96.46;94819.09;5038657;28;20108;-83
2023/08/16 09:01:27;;;;;;;9.98;9.07;;;;;;;28.67;96.70;94820.28;5019128;28;20134;-81
2023/08/16 09:03:53;;;;;;;9.95;9.18;;;;;;;28.33;96.28;94814.31;5038621;28;20017;-79
2023/08/16 09:06:19;;;;;;;10.30;9.40;;;;;;;27.69;95.64;94820.00;5033158;28;20400;-79
2023/08/16 09:08:45;;;;;;;9.50;8.57;;;;;;;27.70;96.84;94819.75;5034711;28;20025;-82
2023/08/16 09:11:12;;;;;;;11.57;9.05;;;;;;;27.09;99.79;94802.66;5034053;28;20032;-83
2023/08/16 09:13:38;;;;;;;9.43;8.55;;;;;;;27.29;98.37;94821.13;5020998;28;20029;-83
2023/08/16 09:16:03;;;;;;;9.55;8.65;;;;;;;27.52;100.00;94824.94;5022433;28;20110;-82
2023/08/16 09:18:29;;;;;;;9.93;9.02;;;;;;;27.11;99.40;94824.44;5036631;28;20111;-83
2023/08/16 09:20:58;;;;;;;13.85;9.48;;;;;;;27.12;99.21;94831.38;5018548;28;20087;-79
2023/08/16 09:23:23;;;;;;;12.20;9.73;;;;;;;27.10;100.00;94828.19;5033308;28;20540;-82
2023/08/16 09:25:50;;;;;;;10.23;9.23;;;;;;;27.59;100.00;94836.06;5039055;28;20036;-84
2023/08/16 09:28:16;;;;;;;9.70;9.00;;;;;;;27.99;100.00;94833.03;5020645;28;20033;-83
2023/08/16 09:30:42;;;;;;;9.90;9.10;;;;;;;28.23;100.00;94833.06;5024053;28;20040;-81
2023/08/16 09:33:08;;;;;;;10.10;8.88;;;;;;;28.33;99.04;94826.81;5030460;28;21023;-82
2023/08/16 09:35:38;;;;;;;9.93;8.93;;;;;;;28.62;97.72;94820.34;5014487;28;20055;-84
2023/08/16 09:38:03;;;;;;;8.88;7.97;;;;;;;28.64;93.56;94820.84;5016651;28;20039;-81
2023/08/16 09:40:29;;;;;;;11.27;7.60;;;;;;;28.61;92.01;94831.28;5027524;28;20030;-83
2023/08/16 09:43:02;;;;;;;9.20;8.30;;;;;;;28.31;94.69;94827.13;5036137;28;20495;-83
2023/08/16 09:45:29;;;;;;;8.43;7.68;;;;;;;28.82;90.85;94827.31;5008324;28;20114;-78
2023/08/16 09:47:55;;;;;;;8.82;8.13;;;;;;;28.39;94.05;94829.16;5032448;28;20041;-81
2023/08/16 09:50:22;;;;;;;8.68;7.82;;;;;;;28.39;94.34;94831.00;5037933;28;20052;-80
2023/08/16 09:52:49;;;;;;;8.40;7.82;;;;;;;28.89;93.11;94829.63;5017095;28;20387;-81
2023/08/16 09:55:26;;;;;;;11.07;7.80;;;;;;;28.54;91.56;94836.97;5036442;28;20033;-83
2023/08/16 09:57:53;;;;;;;9.80;8.35;;;;;;;28.12;95.94;94839.59;5034330;28;20036;-81
2023/08/16 10:00:18;;;;;;;8.80;7.43;;;;;;;28.76;92.88;94831.13;5018081;28;20026;-84
2023/08/16 10:02:47;;;;;;;9.77;8.05;;;;;;;28.55;94.28;94838.56;5019102;28;20619;-83
2023/08/16 10:05:16;;;;;;;8.60;7.82;;;;;;;29.17;89.92;94828.66;5033427;28;20020;-82
2023/08/16 10:07:41;;;;;;;9.20;8.27;;;;;;;28.35;94.07;94833.47;5036226;28;20028;-81
2023/08/16 10:10:09;;;;;;;8.05;7.25;;;;;;;28.49;94.34;94834.38;5035871;28;20017;-80
2023/08/16 10:12:36;;;;;;;8.73;7.93;;;;;;;28.78;91.78;94834.28;5034606;28;20600;-82
2023/08/16 10:15:02;;;;;;;9.15;8.45;;;;;;;28.48;94.14;94840.00;5035820;28;20108;-81
2023/08/16 10:17:28;;;;;;;8.43;7.72;;;;;;;27.91;90.96;94838.16;5034461;28;20045;-82
2023/08/16 10:20:00;;;;;;;8.60;7.68;;;;;;;29.02;88.82;94836.91;5037802;28;20083;-81
2023/08/16 10:22:39;;;;;;;8.55;7.50;;;;;;;29.85;85.13;94833.50;5033675;28;20550;-82
2023/08/16 10:25:12;;;;;;;8.80;7.80;;;;;;;29.58;83.01;94829.63;5036587;28;20033;-85
2023/08/16 10:27:39;;;;;;;8.07;7.53;;;;;;;29.33;83.15;94827.38;5041480;28;20025;-83
2023/08/16 10:30:07;;;;;;;10.75;8.20;;;;;;;29.64;83.12;94822.31;5041494;28;20074;-83
2023/08/16 10:32:32;;;;;;;;;;;;;;;29.35;86.63;94827.88;5042281;28;20024;-82
2023/08/16 10:34:59;;;;;;;8.83;7.83;;;;;;;28.27;90.80;94820.78;5038256;28;19920;-83
2023/08/16 10:37:26;;;;;;;10.60;8.02;;;;;;;28.12;94.71;94823.63;5025392;28;20032;-82
2023/08/16 10:39:51;;;;;;;11.00;8.50;;;;;;;28.39;94.46;94815.03;5040658;28;20032;-80
2023/08/16 10:42:16;;;;;;;9.07;8.15;;;;;;;28.90;95.23;94812.53;5040422;28;20025;-80
2023/08/16 10:44:51;;;;;;;7.55;6.95;;;;;;;28.81;90.09;94823.03;5040962;28;20898;-82
2023/08/16 10:47:27;;;;;;;10.27;8.55;;;;;;;28.68;95.04;94816.56;5040830;28;20629;-82
2023/08/16 10:49:52;;;;;;;9.73;8.82;;;;;;;28.97;92.63;94819.09;5036918;28;20031;-79
2023/08/16 10:52:27;;;;;;;9.65;8.52;;;;;;;28.99;88.27;94813.47;5020767;28;20495;-84
2023/08/16 10:54:54;;;;;;;9.32;8.52;;;;;;;28.60;94.25;94817.16;5017844;28;20410;-82
2023/08/16 10:57:24;;;;;;;10.75;8.25;;;;;;;29.28;90.11;94816.81;5026978;28;20576;-82
2023/08/16 10:59:49;;;;;;;8.90;8.02;;;;;;;29.68;87.13;94815.31;5041743;28;20537;-83
2023/08/16 11:02:15;;;;;;;9.02;8.18;;;;;;;29.53;86.47;94805.69;5040468;28;20020;-82
2023/08/16 11:04:46;;;;;;;9.48;8.65;;;;;;;29.21;88.91;94811.78;5041332;28;20045;-81
2023/08/16 11:07:12;;;;;;;8.85;8.10;;;;;;;29.21;89.76;94813.66;5024841;28;20029;-81
2023/08/16 11:09:38;;;;;;;9.25;8.45;;;;;;;29.39;90.39;94815.53;5048030;28;20039;-81
2023/08/16 11:12:06;;;;;;;8.77;8.15;;;;;;;29.39;89.31;94810.19;5061088;28;20024;-82
2023/08/16 11:14:33;;;;;;;9.45;8.75;;;;;;;29.65;91.73;94813.25;5061657;28;20044;-80
2023/08/16 11:16:59;;;;;;;9.00;8.32;;;;;;;29.30;90.39;94811.94;5061455;28;20090;-79
2023/08/16 11:19:25;;;;;;;8.90;8.18;;;;;;;28.96;92.58;94814.81;5043142;28;20024;-81
2023/08/16 11:21:51;;;;;;;9.80;8.90;;;;;;;28.97;93.29;94820.94;5061677;28;20111;-82
2023/08/16 11:24:17;;;;;;;9.02;8.18;;;;;;;28.36;95.71;94812.94;5044086;28;20020;-82
2023/08/16 11:26:43;;;;;;;10.07;9.05;;;;;;;28.86;96.60;94809.66;5061760;28;20052;-79